createdAt,value
2022-11-30T00:01:26.496Z,28.37
2022-11-30T00:03:55.560Z,28.47
2022-11-30T00:06:24.413Z,26.37
2022-11-30T00:08:55.723Z,25.83
2022-11-30T00:11:25.109Z,24.10
2022-11-30T00:13:53.905Z,24.50
2022-11-30T00:16:22.961Z,22.80
2022-11-30T00:18:51.714Z,22.20
2022-11-30T00:21:20.415Z,20.13
2022-11-30T00:23:49.578Z,23.60
2022-11-30T00:26:22.555Z,22.53
2022-11-30T00:28:50.846Z,21.60
2022-11-30T00:31:20.300Z,23.77
2022-11-30T00:33:48.960Z,23.77
2022-11-30T00:36:19.683Z,25.53
2022-11-30T00:38:48.669Z,27.10
2022-11-30T00:41:20.533Z,25.40
2022-11-30T00:43:50.252Z,25.20
2022-11-30T00:46:18.905Z,27.07
2022-11-30T00:48:48.299Z,27.73
2022-11-30T00:51:16.730Z,26.63
2022-11-30T00:53:44.966Z,27.90
2022-11-30T00:56:13.401Z,27.00
2022-11-30T00:58:43.003Z,29.40
2022-11-30T01:01:11.232Z,28.77
2022-11-30T01:03:39.552Z,27.20
2022-11-30T01:06:10.994Z,26.17
2022-11-30T01:08:39.592Z,26.03
2022-11-30T01:11:10.246Z,30.40
2022-11-30T01:13:38.719Z,29.70
2022-11-30T01:16:13.910Z,29.30
2022-11-30T01:18:42.923Z,30.87
2022-11-30T01:21:14.437Z,28.67
2022-11-30T01:23:43.319Z,30.10
2022-11-30T01:26:12.599Z,27.97
2022-11-30T01:28:41.347Z,30.10
2022-11-30T01:31:12.835Z,30.67
2022-11-30T01:33:43.147Z,30.83
2022-11-30T01:36:13.294Z,30.27
2022-11-30T01:38:44.986Z,30.30
2022-11-30T01:41:15.808Z,32.23
2022-11-30T01:43:45.750Z,29.80
2022-11-30T01:46:32.056Z,30.37
2022-11-30T01:49:06.962Z,28.30
2022-11-30T01:51:39.271Z,29.30
2022-11-30T01:54:10.990Z,30.00
2022-11-30T01:56:42.239Z,27.93
2022-11-30T01:59:11.126Z,29.27
2022-11-30T02:01:40.983Z,28.70
2022-11-30T02:04:13.825Z,29.53
2022-11-30T02:06:42.443Z,30.63
2022-11-30T02:09:11.248Z,29.20
2022-11-30T02:11:39.483Z,26.67
2022-11-30T02:14:20.601Z,28.47
2022-11-30T02:16:58.088Z,27.17
2022-11-30T02:20:13.539Z,26.77
2022-11-30T02:22:52.461Z,26.67
2022-11-30T02:25:28.011Z,27.27
2022-11-30T02:28:13.643Z,27.53
2022-11-30T02:30:48.240Z,27.87
2022-11-30T02:33:19.524Z,26.63
2022-11-30T02:35:54.828Z,24.40
2022-11-30T02:38:26.068Z,26.07
2022-11-30T02:40:54.905Z,26.43
2022-11-30T02:43:26.112Z,24.90
2022-11-30T02:46:03.080Z,25.50
2022-11-30T02:48:35.335Z,26.00
2022-11-30T02:51:05.793Z,26.00
2022-11-30T02:53:34.098Z,27.57
2022-11-30T02:56:02.422Z,27.30
2022-11-30T02:58:30.825Z,25.03
2022-11-30T03:01:00.637Z,24.97
2022-11-30T03:03:29.966Z,28.10
2022-11-30T03:05:58.234Z,26.03
2022-11-30T03:08:26.446Z,22.37
2022-11-30T03:10:55.035Z,23.10
2022-11-30T03:13:23.225Z,24.37
2022-11-30T03:15:51.389Z,22.53
2022-11-30T03:18:21.190Z,23.53
2022-11-30T03:20:49.283Z,23.10
2022-11-30T03:23:17.534Z,23.00
2022-11-30T03:25:45.870Z,23.67
2022-11-30T03:28:13.970Z,25.47
2022-11-30T03:30:43.331Z,23.00
2022-11-30T03:33:11.719Z,25.10
2022-11-30T03:35:41.312Z,22.07
2022-11-30T03:38:09.765Z,21.60
2022-11-30T03:40:38.649Z,21.93
2022-11-30T03:43:06.813Z,22.07
2022-11-30T03:45:35.122Z,22.87
2022-11-30T03:48:03.325Z,21.70
2022-11-30T03:50:31.479Z,24.00
2022-11-30T03:53:01.367Z,22.77
2022-11-30T03:55:29.786Z,20.97
2022-11-30T03:57:57.970Z,22.63
2022-11-30T04:00:26.440Z,22.40
2022-11-30T04:02:54.747Z,21.70
2022-11-30T04:05:23.534Z,21.43
2022-11-30T04:07:51.842Z,22.20
2022-11-30T04:10:21.642Z,20.53
2022-11-30T04:12:49.870Z,21.33
2022-11-30T04:15:18.189Z,24.10
2022-11-30T04:17:46.445Z,22.00
2022-11-30T04:20:14.814Z,23.07
2022-11-30T04:22:42.938Z,22.67
2022-11-30T04:25:11.264Z,21.90
2022-11-30T04:27:40.863Z,24.97
2022-11-30T04:30:11.625Z,24.20
2022-11-30T04:32:40.370Z,28.97
2022-11-30T04:35:09.815Z,28.50
2022-11-30T04:37:38.185Z,28.70
2022-11-30T04:40:07.750Z,29.70
2022-11-30T04:42:35.971Z,28.77
2022-11-30T04:45:06.228Z,30.40
2022-11-30T04:47:35.808Z,30.60
2022-11-30T04:50:04.286Z,30.53
2022-11-30T04:52:32.447Z,29.77
2022-11-30T04:55:00.674Z,29.90
2022-11-30T04:57:28.893Z,33.67
2022-11-30T04:59:57.276Z,31.07
2022-11-30T05:02:27.019Z,31.33
2022-11-30T05:04:55.190Z,32.00
2022-11-30T05:07:23.455Z,32.77
2022-11-30T05:09:51.596Z,31.80
2022-11-30T05:12:19.730Z,30.77
2022-11-30T05:14:48.740Z,33.13
2022-11-30T05:17:17.469Z,29.50
2022-11-30T05:19:47.346Z,30.80
2022-11-30T05:22:15.541Z,32.83
2022-11-30T05:24:43.776Z,31.27
2022-11-30T05:27:15.436Z,34.23
2022-11-30T05:29:47.620Z,33.20
2022-11-30T05:32:15.835Z,31.97
2022-11-30T05:34:50.589Z,31.80
2022-11-30T05:37:21.477Z,32.70
2022-11-30T05:39:50.386Z,31.60
2022-11-30T05:42:18.615Z,31.30
2022-11-30T05:44:48.009Z,31.00
2022-11-30T05:47:18.670Z,33.30
2022-11-30T05:49:46.965Z,32.37
2022-11-30T05:52:15.114Z,30.83
2022-11-30T05:54:44.792Z,27.53
2022-11-30T05:57:13.281Z,27.33
2022-11-30T05:59:41.750Z,27.13
2022-11-30T06:02:10.268Z,26.97
2022-11-30T06:04:38.587Z,27.83
2022-11-30T06:07:11.729Z,27.20
2022-11-30T06:09:40.030Z,25.30
2022-11-30T06:12:10.070Z,27.33
2022-11-30T06:14:38.242Z,26.10
2022-11-30T06:17:06.412Z,25.70
2022-11-30T06:19:34.618Z,27.40
2022-11-30T06:22:02.752Z,29.70
2022-11-30T06:24:31.258Z,25.30
2022-11-30T06:26:59.466Z,26.40
2022-11-30T06:29:29.085Z,25.23
2022-11-30T06:31:57.326Z,24.43
2022-11-30T06:34:25.510Z,25.20
2022-11-30T06:36:53.597Z,25.30
2022-11-30T06:39:42.934Z,24.03
2022-11-30T06:42:10.130Z,24.77
2022-11-30T06:44:39.765Z,22.37
2022-11-30T06:47:08.327Z,23.43
2022-11-30T06:49:36.742Z,25.37
2022-11-30T06:52:04.987Z,25.33
2022-11-30T06:54:33.288Z,22.73
2022-11-30T06:57:01.699Z,25.37
2022-11-30T06:59:29.927Z,25.33
2022-11-30T07:02:02.922Z,25.10
2022-11-30T07:04:35.965Z,24.40
2022-11-30T07:07:04.199Z,24.33
2022-11-30T07:09:32.779Z,25.03
2022-11-30T07:12:01.217Z,22.87
2022-11-30T07:14:30.686Z,24.10
2022-11-30T07:17:04.734Z,25.53
2022-11-30T07:19:34.311Z,27.00
2022-11-30T07:22:02.625Z,22.70
2022-11-30T07:24:51.843Z,23.23
2022-11-30T07:27:26.625Z,23.63
2022-11-30T07:29:54.977Z,23.70
2022-11-30T07:32:24.561Z,23.70
2022-11-30T07:34:52.750Z,23.20
2022-11-30T07:37:20.896Z,23.90
2022-11-30T07:39:49.134Z,22.37
2022-11-30T07:42:17.757Z,24.03
2022-11-30T07:44:46.278Z,24.03
2022-11-30T07:47:14.705Z,23.03
2022-11-30T07:49:44.398Z,21.80
2022-11-30T07:52:12.599Z,22.00
2022-11-30T07:54:40.770Z,20.57
2022-11-30T07:57:09.344Z,22.57
2022-11-30T07:59:37.685Z,21.43
2022-11-30T08:02:05.874Z,20.87
2022-11-30T08:04:34.955Z,20.60
2022-11-30T08:07:04.850Z,22.30
2022-11-30T08:09:32.934Z,21.83
2022-11-30T08:12:01.166Z,19.27
2022-11-30T08:14:29.597Z,21.37
2022-11-30T08:16:57.803Z,20.20
2022-11-30T08:19:26.278Z,21.80
2022-11-30T08:21:54.473Z,22.87
2022-11-30T08:24:24.179Z,22.23
2022-11-30T08:26:53.242Z,24.63
2022-11-30T08:29:21.619Z,22.90
2022-11-30T08:31:50.014Z,24.37
2022-11-30T08:34:18.649Z,25.37
2022-11-30T08:36:51.767Z,22.13
2022-11-30T08:39:20.461Z,20.10
2022-11-30T08:41:50.101Z,22.07
2022-11-30T08:44:18.232Z,23.77
2022-11-30T08:46:53.682Z,23.30
2022-11-30T08:49:24.180Z,22.37
2022-11-30T08:54:45.460Z,23.77
2022-11-30T08:57:15.676Z,22.63
2022-11-30T08:59:44.130Z,23.37
2022-11-30T09:02:14.108Z,26.00
2022-11-30T09:04:42.508Z,24.13
2022-11-30T09:07:11.051Z,23.70
2022-11-30T09:09:40.442Z,22.93
2022-11-30T09:12:09.355Z,25.17
2022-11-30T09:14:38.966Z,24.87
2022-11-30T09:17:07.218Z,24.87
2022-11-30T09:19:35.384Z,23.07
2022-11-30T09:22:03.532Z,24.73
2022-11-30T09:24:32.014Z,23.90
2022-11-30T09:27:00.353Z,24.27
2022-11-30T09:29:28.502Z,24.17
2022-11-30T09:31:58.187Z,23.93
2022-11-30T09:34:26.419Z,25.80
2022-11-30T09:36:54.523Z,22.27
2022-11-30T09:39:22.811Z,22.20
2022-11-30T09:42:11.043Z,22.87
2022-11-30T09:44:49.233Z,23.17
2022-11-30T09:47:33.660Z,23.70
2022-11-30T09:50:05.264Z,22.17
2022-11-30T09:52:37.934Z,22.73
2022-11-30T09:55:10.650Z,23.30
2022-11-30T09:57:47.080Z,20.30
2022-11-30T10:00:19.124Z,21.10
2022-11-30T10:02:51.055Z,21.47
2022-11-30T10:05:22.247Z,21.87
2022-11-30T10:08:16.735Z,22.73
2022-11-30T10:10:52.980Z,22.60
2022-11-30T10:13:41.462Z,22.80
2022-11-30T10:16:22.410Z,22.10
2022-11-30T10:19:00.498Z,24.70
2022-11-30T10:21:50.367Z,24.97
2022-11-30T10:24:31.575Z,22.77
2022-11-30T10:27:03.975Z,23.73
2022-11-30T10:29:36.317Z,23.60
2022-11-30T10:32:14.542Z,23.40
2022-11-30T10:34:45.985Z,22.40
2022-11-30T10:37:18.559Z,22.20
2022-11-30T10:39:57.251Z,21.27
2022-11-30T10:42:31.001Z,22.70
2022-11-30T10:45:04.470Z,23.90
2022-11-30T10:47:37.207Z,22.97
2022-11-30T10:50:09.156Z,21.40
2022-11-30T10:52:45.106Z,22.20
2022-11-30T10:55:18.912Z,20.10
2022-11-30T10:57:51.063Z,20.50
2022-11-30T11:00:20.052Z,20.00
2022-11-30T11:02:49.989Z,19.40
2022-11-30T11:05:27.986Z,19.70
2022-11-30T11:08:05.954Z,20.27
2022-11-30T11:10:37.203Z,21.00
2022-11-30T11:13:06.734Z,21.23
2022-11-30T11:15:35.984Z,20.30
2022-11-30T11:18:22.997Z,19.57
2022-11-30T11:21:05.803Z,19.80
2022-11-30T11:23:38.428Z,19.07
2022-11-30T11:26:08.112Z,20.27
2022-11-30T11:28:38.489Z,21.53
2022-11-30T11:31:19.554Z,21.00
2022-11-30T11:33:53.890Z,23.73
2022-11-30T11:36:29.575Z,21.67
2022-11-30T11:38:58.524Z,21.07
2022-11-30T11:41:29.687Z,20.27
2022-11-30T11:44:03.432Z,20.30
2022-11-30T11:46:33.537Z,19.50
2022-11-30T11:49:04.986Z,20.30
2022-11-30T11:51:36.752Z,19.60
2022-11-30T11:54:17.690Z,20.63
2022-11-30T11:56:46.836Z,19.30
2022-11-30T11:59:19.060Z,18.73
2022-11-30T12:01:56.390Z,16.70
2022-11-30T12:04:46.710Z,20.63
2022-11-30T12:07:42.680Z,19.40
2022-11-30T12:10:51.165Z,17.23
2022-11-30T12:13:17.798Z,21.87
2022-11-30T12:15:58.558Z,19.70
2022-11-30T12:18:33.903Z,20.17
2022-11-30T12:21:07.295Z,20.73
2022-11-30T12:23:53.334Z,17.93
2022-11-30T12:26:30.554Z,19.07
2022-11-30T12:29:20.311Z,18.90
2022-11-30T12:32:03.682Z,19.53
2022-11-30T12:34:55.298Z,20.77
2022-11-30T12:37:32.474Z,19.03
2022-11-30T12:40:09.256Z,19.60
2022-11-30T12:42:44.798Z,19.83
2022-11-30T12:45:18.782Z,18.93
2022-11-30T12:47:57.145Z,18.63
2022-11-30T12:50:43.283Z,19.07
2022-11-30T12:53:22.178Z,17.90
2022-11-30T12:56:03.484Z,17.07
2022-11-30T12:58:40.850Z,19.00
2022-11-30T13:01:25.141Z,17.83
2022-11-30T13:04:02.367Z,17.10
2022-11-30T13:06:34.221Z,17.43
2022-11-30T13:09:07.841Z,15.77
2022-11-30T13:11:39.389Z,16.00
2022-11-30T13:14:14.877Z,15.80
2022-11-30T13:16:44.419Z,16.90
2022-11-30T13:19:27.710Z,14.93
2022-11-30T13:22:00.551Z,17.43
2022-11-30T13:24:33.758Z,18.40
2022-11-30T13:27:09.946Z,18.87
2022-11-30T13:30:07.297Z,19.03
2022-11-30T13:35:43.803Z,18.87
2022-11-30T13:38:36.464Z,17.93
2022-11-30T13:41:07.654Z,16.50
2022-11-30T13:43:42.881Z,17.00
2022-11-30T13:46:20.007Z,17.53
2022-11-30T13:48:49.113Z,17.83
2022-11-30T13:51:35.815Z,17.97
2022-11-30T13:54:37.110Z,19.43
2022-11-30T13:57:16.199Z,16.70
2022-11-30T13:59:51.622Z,17.93
2022-11-30T14:02:59.901Z,17.37
2022-11-30T14:05:39.626Z,17.80
2022-11-30T14:08:16.642Z,17.37
2022-11-30T14:10:46.772Z,18.83
2022-11-30T14:13:32.119Z,18.07
2022-11-30T14:16:02.967Z,16.63
2022-11-30T14:18:42.548Z,18.70
2022-11-30T14:21:36.879Z,16.50
2022-11-30T14:24:13.322Z,15.50
2022-11-30T14:26:45.278Z,16.50
2022-11-30T14:29:18.763Z,16.37
2022-11-30T14:31:55.755Z,16.33
2022-11-30T14:34:28.243Z,16.50
2022-11-30T14:37:01.163Z,17.27
2022-11-30T14:39:34.455Z,15.70
2022-11-30T14:42:04.603Z,15.50
2022-11-30T14:44:35.784Z,15.27
2022-11-30T14:47:17.068Z,16.43
2022-11-30T14:49:49.052Z,16.33
2022-11-30T14:52:36.368Z,16.00
2022-11-30T14:55:15.827Z,16.73
2022-11-30T14:57:52.158Z,16.63
2022-11-30T15:00:22.846Z,18.10
2022-11-30T15:02:52.415Z,16.20
2022-11-30T15:05:24.344Z,17.73
2022-11-30T15:07:52.619Z,16.70
2022-11-30T15:10:29.804Z,16.80
2022-11-30T15:12:59.590Z,16.73
2022-11-30T15:15:31.427Z,15.73
2022-11-30T15:18:14.061Z,16.87
2022-11-30T15:20:49.114Z,14.77
2022-11-30T15:23:17.821Z,16.17
2022-11-30T15:25:48.742Z,15.93
2022-11-30T15:28:22.105Z,16.73
2022-11-30T15:30:53.608Z,14.57
2022-11-30T15:33:25.369Z,15.73
2022-11-30T15:38:51.258Z,17.10
2022-11-30T15:41:21.416Z,14.63
2022-11-30T15:43:52.982Z,15.60
2022-11-30T15:46:34.150Z,16.07
2022-11-30T15:49:14.917Z,16.00
2022-11-30T15:51:45.587Z,16.40
2022-11-30T15:54:15.552Z,15.87
2022-11-30T15:56:57.110Z,15.10
2022-11-30T15:59:28.887Z,13.97
2022-11-30T16:02:08.507Z,14.43
2022-11-30T16:05:13.801Z,14.80
2022-11-30T16:07:51.366Z,15.20
2022-11-30T16:10:23.803Z,15.33
2022-11-30T16:12:54.493Z,14.30
2022-11-30T16:15:24.722Z,15.90
2022-11-30T16:17:55.026Z,14.60
2022-11-30T16:20:25.010Z,15.00
2022-11-30T16:22:53.373Z,16.23
2022-11-30T16:25:25.024Z,16.13
2022-11-30T16:27:53.851Z,17.07
2022-11-30T16:30:23.405Z,16.67
2022-11-30T16:32:52.800Z,17.30
2022-11-30T16:35:26.058Z,15.90
2022-11-30T16:37:54.187Z,16.10
2022-11-30T16:40:22.446Z,17.43
2022-11-30T16:42:51.766Z,17.97
2022-11-30T16:45:22.724Z,17.00
2022-11-30T16:47:51.544Z,15.73
2022-11-30T16:50:20.923Z,15.53
2022-11-30T16:52:50.515Z,16.00
2022-11-30T16:55:20.332Z,15.90
2022-11-30T16:57:49.167Z,14.73
2022-11-30T17:00:20.619Z,16.27
2022-11-30T17:02:54.894Z,14.70
2022-11-30T17:05:23.136Z,13.07
2022-11-30T17:07:52.998Z,14.40
2022-11-30T17:10:21.990Z,13.77
2022-11-30T17:12:50.318Z,14.57
2022-11-30T17:15:21.856Z,13.97
2022-11-30T17:17:50.112Z,13.80
2022-11-30T17:20:19.043Z,14.07
2022-11-30T17:22:48.024Z,16.00
2022-11-30T17:25:20.082Z,17.07
2022-11-30T17:27:49.537Z,21.20
2022-11-30T17:30:19.735Z,20.63
2022-11-30T17:32:48.041Z,17.87
2022-11-30T17:35:16.519Z,16.50
2022-11-30T17:37:44.805Z,15.00
2022-11-30T17:40:15.694Z,15.20
2022-11-30T17:42:45.675Z,15.17
2022-11-30T17:45:13.941Z,14.13
2022-11-30T17:47:44.837Z,14.77
2022-11-30T17:50:14.656Z,14.10
2022-11-30T17:52:43.020Z,15.53
2022-11-30T17:55:11.492Z,14.90
2022-11-30T17:57:39.938Z,15.40
2022-11-30T18:00:10.751Z,15.43
2022-11-30T18:02:38.921Z,13.63
2022-11-30T18:05:07.758Z,14.00
2022-11-30T18:07:36.425Z,14.80
2022-11-30T18:10:04.858Z,14.30
2022-11-30T18:12:33.083Z,13.70
2022-11-30T18:15:01.216Z,15.80
2022-11-30T18:17:32.276Z,15.20
2022-11-30T18:20:00.385Z,14.80
2022-11-30T18:22:29.203Z,14.27
2022-11-30T18:24:57.397Z,15.23
2022-11-30T18:27:26.483Z,14.30
2022-11-30T18:29:54.606Z,14.77
2022-11-30T18:32:22.733Z,15.70
2022-11-30T18:34:52.359Z,14.57
2022-11-30T18:37:20.551Z,14.50
2022-11-30T18:39:48.698Z,14.07
2022-11-30T18:42:18.258Z,14.33
2022-11-30T18:44:47.122Z,13.43
2022-11-30T18:47:15.473Z,13.17
2022-11-30T18:49:43.591Z,14.50
2022-11-30T18:52:13.424Z,13.87
2022-11-30T18:54:41.499Z,14.63
2022-11-30T18:57:09.659Z,15.77
2022-11-30T18:59:37.765Z,15.53
2022-11-30T19:02:06.225Z,13.70
2022-11-30T19:04:34.678Z,15.87
2022-11-30T19:07:02.827Z,13.40
2022-11-30T19:09:32.319Z,14.30
2022-11-30T19:12:00.505Z,13.73
2022-11-30T19:14:28.642Z,13.60
2022-11-30T19:16:56.783Z,13.30
2022-11-30T19:19:24.993Z,14.30
2022-11-30T19:21:53.414Z,14.60
2022-11-30T19:24:21.575Z,13.87
2022-11-30T19:26:51.052Z,12.57
2022-11-30T19:29:19.378Z,13.70
2022-11-30T19:31:47.690Z,14.00
2022-11-30T19:34:16.179Z,13.40
2022-11-30T19:36:44.347Z,14.70
2022-11-30T19:39:12.622Z,13.70
2022-11-30T19:41:40.869Z,14.53
2022-11-30T19:44:14.932Z,14.07
2022-11-30T19:46:43.823Z,12.60
2022-11-30T19:49:12.876Z,11.87
2022-11-30T19:51:42.834Z,12.00
2022-11-30T19:54:11.269Z,14.73
2022-11-30T19:56:41.810Z,14.47
2022-11-30T19:59:11.525Z,15.63
2022-11-30T20:01:39.935Z,14.43
2022-11-30T20:04:08.594Z,20.80
2022-11-30T20:06:38.587Z,19.30
2022-11-30T20:09:08.445Z,18.47
2022-11-30T20:11:36.840Z,12.23
2022-11-30T20:14:05.698Z,13.03
2022-11-30T20:16:35.321Z,19.10
2022-11-30T20:19:04.074Z,18.20
2022-11-30T20:21:34.193Z,13.87
2022-11-30T20:24:05.064Z,11.00
2022-11-30T20:26:35.627Z,9.83
2022-11-30T20:29:06.099Z,10.47
2022-11-30T20:31:37.695Z,11.90
2022-11-30T20:34:08.200Z,12.90
2022-11-30T20:36:36.878Z,11.90
2022-11-30T20:39:06.307Z,11.33
2022-11-30T20:41:35.148Z,9.80
2022-11-30T20:44:03.465Z,11.63
2022-11-30T20:46:33.640Z,11.50
2022-11-30T20:49:15.342Z,10.57
2022-11-30T20:51:43.656Z,11.53
2022-11-30T20:54:12.927Z,12.00
2022-11-30T20:56:41.953Z,11.50
2022-11-30T20:59:14.630Z,11.30
2022-11-30T21:01:43.875Z,11.70
2022-11-30T21:04:13.770Z,12.43
2022-11-30T21:06:45.540Z,13.23
2022-11-30T21:09:14.784Z,13.00
2022-11-30T21:11:43.081Z,12.20
2022-11-30T21:14:11.694Z,12.87
2022-11-30T21:16:40.074Z,11.87
2022-11-30T21:19:10.709Z,11.83
2022-11-30T21:21:40.141Z,13.47
2022-11-30T21:24:09.906Z,12.23
2022-11-30T21:26:39.522Z,12.40
2022-11-30T21:29:11.309Z,12.23
2022-11-30T21:31:39.930Z,12.20
2022-11-30T21:34:08.410Z,11.97
2022-11-30T21:36:36.610Z,12.70
2022-11-30T21:39:07.530Z,13.00
2022-11-30T21:41:37.594Z,11.80
2022-11-30T21:44:06.177Z,13.20
2022-11-30T21:46:35.100Z,11.20
2022-11-30T21:49:03.885Z,14.97
2022-11-30T21:51:32.872Z,12.70
2022-11-30T21:54:02.392Z,14.03
2022-11-30T21:56:34.068Z,13.80
2022-11-30T21:59:03.230Z,15.57
2022-11-30T22:01:33.505Z,14.30
2022-11-30T22:04:03.455Z,14.07
2022-11-30T22:06:33.213Z,14.30
2022-11-30T22:09:07.730Z,15.13
2022-11-30T22:11:40.541Z,17.10
2022-11-30T22:14:11.616Z,13.67
2022-11-30T22:16:40.019Z,14.63
2022-11-30T22:19:08.475Z,15.10
2022-11-30T22:21:37.022Z,14.67
2022-11-30T22:24:07.451Z,14.50
2022-11-30T22:26:38.907Z,14.50
2022-11-30T22:29:09.676Z,13.70
2022-11-30T22:31:39.270Z,13.50
2022-11-30T22:34:07.769Z,14.40
2022-11-30T22:36:37.831Z,15.50
2022-11-30T22:39:09.257Z,15.13
2022-11-30T22:41:40.088Z,14.63
2022-11-30T22:44:08.766Z,14.60
2022-11-30T22:46:38.352Z,15.40
2022-11-30T22:49:09.291Z,13.63
2022-11-30T22:51:38.646Z,15.30
2022-11-30T22:54:07.736Z,15.40
2022-11-30T22:56:41.156Z,16.10
2022-11-30T22:59:13.036Z,15.63
2022-11-30T23:01:44.878Z,14.70
2022-11-30T23:04:14.946Z,13.57
2022-11-30T23:06:44.133Z,15.63
2022-11-30T23:09:13.900Z,15.20
2022-11-30T23:11:43.717Z,15.77
2022-11-30T23:14:12.413Z,15.37
2022-11-30T23:16:41.474Z,16.10
2022-11-30T23:19:11.531Z,14.70
2022-11-30T23:21:42.282Z,15.47
2022-11-30T23:24:20.194Z,15.73
2022-11-30T23:26:50.026Z,15.97
2022-11-30T23:29:19.140Z,16.10
2022-11-30T23:31:48.575Z,15.60
2022-11-30T23:34:19.686Z,17.03
2022-11-30T23:36:48.296Z,15.47
2022-11-30T23:39:19.205Z,15.40
2022-11-30T23:41:48.950Z,17.90
2022-11-30T23:44:17.239Z,16.77
2022-11-30T23:46:46.211Z,16.10
2022-11-30T23:49:15.676Z,15.33
2022-11-30T23:51:43.860Z,15.93
2022-11-30T23:54:12.068Z,15.57
2022-11-30T23:56:40.207Z,14.80
2022-11-30T23:59:09.690Z,15.30
